Time;durP1;ratioP1;P1;durP2;ratioP2;P2;SDS_P1;SDS_P2;PMS_P1;PMS_P2;Temp;Humidity;BMP_temperature;BMP_pressure;BME280_temperature;BME280_humidity;BME280_pressure;Samples;Min_cycle;Max_cycle;Signal;HPM_P1;HPM_P2
2022/01/01 00:00:55;;;;;;;2.33;0.52;;;25.20;99.90;;;;;;4992900;28;20121;-70
2022/01/01 00:03:22;;;;;;;3.20;0.70;;;25.30;99.90;;;;;;4993384;28;20057;-70
2022/01/01 00:05:50;;;;;;;1.95;0.70;;;25.50;99.90;;;;;;4993225;28;20034;-70
2022/01/01 00:08:17;;;;;;;1.92;0.50;;;25.00;99.90;;;;;;4993460;28;20355;-70
2022/01/01 00:10:44;;;;;;;2.33;0.77;;;25.20;99.90;;;;;;4993360;28;20046;-71
2022/01/01 00:13:12;;;;;;;3.13;0.65;;;25.30;99.90;;;;;;4992920;28;20030;-71
2022/01/01 00:15:39;;;;;;;5.25;0.75;;;25.30;99.90;;;;;;4993471;28;20097;-70
2022/01/01 00:18:07;;;;;;;5.15;0.90;;;25.50;99.90;;;;;;4993727;28;20495;-70
2022/01/01 00:20:34;;;;;;;5.03;0.70;;;25.50;99.90;;;;;;4995643;28;20384;-71
2022/01/01 00:23:01;;;;;;;6.88;0.77;;;25.70;99.90;;;;;;4996781;28;20389;-71
2022/01/01 00:25:29;;;;;;;1.45;0.32;;;25.80;99.90;;;;;;4996401;28;20077;-71
2022/01/01 00:27:56;;;;;;;1.20;0.35;;;25.70;99.90;;;;;;4996758;28;20061;-72
2022/01/01 00:30:23;;;;;;;7.57;0.50;;;25.80;99.90;;;;;;4996169;28;20475;-70
2022/01/01 00:32:50;;;;;;;4.45;0.68;;;25.90;99.90;;;;;;4996718;28;20478;-71
2022/01/01 00:35:18;;;;;;;4.38;0.50;;;25.90;99.90;;;;;;4995739;28;20081;-70
2022/01/01 00:37:45;;;;;;;1.38;0.43;;;26.00;99.90;;;;;;5001978;28;20366;-72
2022/01/01 00:40:13;;;;;;;2.65;0.40;;;26.00;99.90;;;;;;5015601;28;20057;-71
2022/01/01 00:42:40;;;;;;;2.63;0.40;;;26.30;99.90;;;;;;5014275;28;20061;-71
2022/01/01 00:45:08;;;;;;;3.60;0.40;;;26.40;99.90;;;;;;5016138;28;20038;-70
2022/01/01 00:47:35;;;;;;;4.47;0.50;;;26.40;99.90;;;;;;5005413;28;20026;-71
2022/01/01 00:50:03;;;;;;;2.20;0.55;;;26.20;99.90;;;;;;4994038;28;20046;-71
2022/01/01 00:52:30;;;;;;;3.45;0.57;;;25.90;99.90;;;;;;4993640;28;20026;-70
2022/01/01 00:54:57;;;;;;;2.92;0.60;;;26.00;99.90;;;;;;4994125;28;20018;-71
2022/01/01 00:57:25;;;;;;;3.00;0.38;;;25.80;99.90;;;;;;4993508;28;20018;-72
2022/01/01 00:59:53;;;;;;;3.75;0.52;;;25.70;99.90;;;;;;4996058;28;20053;-71
2022/01/01 01:02:20;;;;;;;2.95;0.80;;;25.80;99.90;;;;;;5002688;28;20046;-70
2022/01/01 01:04:47;;;;;;;3.75;0.68;;;26.10;99.90;;;;;;4996800;28;20089;-71
2022/01/01 01:07:15;;;;;;;2.13;0.60;;;26.50;99.90;;;;;;4992675;28;20026;-72
2022/01/01 01:09:42;;;;;;;1.77;0.57;;;26.80;99.90;;;;;;4995230;28;20059;-73
2022/01/01 01:12:10;;;;;;;4.50;1.05;;;26.70;99.90;;;;;;4992439;28;20076;-72
2022/01/01 01:14:41;;;;;;;1.90;0.70;;;27.00;99.90;;;;;;4989277;28;20022;-71
2022/01/01 01:17:10;;;;;;;1.92;0.85;;;26.90;99.90;;;;;;4985938;28;20479;-71
2022/01/01 01:19:37;;;;;;;7.20;0.98;;;26.80;99.90;;;;;;4995390;28;20391;-71
2022/01/01 01:22:05;;;;;;;1.88;0.52;;;26.60;99.90;;;;;;4979057;28;20034;-70
2022/01/01 01:24:34;;;;;;;5.63;0.85;;;26.30;99.90;;;;;;4994035;28;20084;-71
2022/01/01 01:27:03;;;;;;;3.53;0.80;;;26.40;99.90;;;;;;4994972;28;20399;-71
2022/01/01 01:29:32;;;;;;;2.08;0.55;;;26.70;99.90;;;;;;4981812;28;20027;-71
2022/01/01 01:31:59;;;;;;;2.25;0.65;;;26.80;99.90;;;;;;4991718;28;20431;-71
2022/01/01 01:34:27;;;;;;;9.07;0.90;;;26.90;99.90;;;;;;4980077;28;20014;-70
2022/01/01 01:36:54;;;;;;;2.03;0.55;;;26.70;99.90;;;;;;4987158;28;20387;-71
2022/01/01 01:39:21;;;;;;;3.53;0.55;;;26.10;99.90;;;;;;4987286;28;20449;-70
2022/01/01 01:41:51;;;;;;;4.30;1.05;;;26.20;99.90;;;;;;4994822;28;20042;-72
2022/01/01 01:44:29;;;;;;;3.08;0.82;;;26.20;99.90;;;;;;4994777;28;20014;-72
2022/01/01 01:46:59;;;;;;;9.75;0.88;;;25.90;99.90;;;;;;4995050;28;20136;-71
2022/01/01 01:49:26;;;;;;;2.63;0.60;;;25.50;99.90;;;;;;4994877;28;20018;-72
2022/01/01 01:51:54;;;;;;;2.97;0.77;;;25.70;99.90;;;;;;4994766;28;20033;-72
2022/01/01 01:54:22;;;;;;;3.38;0.65;;;25.90;99.90;;;;;;4979111;28;20022;-72
2022/01/01 01:56:50;;;;;;;4.97;0.93;;;25.70;99.90;;;;;;5001117;28;20025;-72
2022/01/01 01:59:18;;;;;;;6.00;1.58;;;25.70;99.90;;;;;;5004029;28;20068;-72
2022/01/01 02:01:45;;;;;;;6.13;1.23;;;25.70;99.90;;;;;;5001404;28;20416;-71
2022/01/01 02:04:12;;;;;;;4.40;0.68;;;26.10;99.90;;;;;;5003103;28;20097;-71
2022/01/01 02:06:41;;;;;;;6.25;0.85;;;26.60;99.90;;;;;;5003915;28;20026;-72
2022/01/01 02:09:11;;;;;;;4.28;0.85;;;26.70;99.90;;;;;;5001566;28;20439;-72
2022/01/01 02:11:39;;;;;;;11.73;0.90;;;26.80;99.90;;;;;;5002074;28;20053;-72
2022/01/01 02:14:16;;;;;;;5.07;0.68;;;26.70;99.90;;;;;;5000107;28;20068;-71
2022/01/01 02:17:09;;;;;;;3.90;1.20;;;26.60;99.90;;;;;;5002399;28;20072;-72
2022/01/01 02:20:00;;;;;;;2.95;0.60;;;26.70;99.90;;;;;;5004390;28;20014;-72
2022/01/01 02:22:50;;;;;;;5.75;0.95;;;27.10;99.90;;;;;;5002611;28;20030;-72
2022/01/01 02:25:20;;;;;;;3.08;0.75;;;27.40;99.90;;;;;;5002692;28;20123;-71
2022/01/01 02:27:47;;;;;;;3.47;0.70;;;27.40;99.90;;;;;;5001119;28;20037;-71
2022/01/01 02:30:16;;;;;;;3.10;0.50;;;27.20;99.90;;;;;;5002748;28;20022;-72
2022/01/01 02:32:44;;;;;;;5.40;0.95;;;27.00;99.90;;;;;;5002177;28;20105;-73
2022/01/01 02:35:15;;;;;;;6.40;1.45;;;26.90;99.90;;;;;;5003484;28;20022;-73
2022/01/01 02:37:43;;;;;;;6.25;0.77;;;26.70;99.90;;;;;;5001793;28;20030;-75
2022/01/01 02:40:13;;;;;;;4.43;1.00;;;26.30;99.90;;;;;;5002515;28;20033;-75
2022/01/01 02:42:45;;;;;;;5.53;1.10;;;26.30;99.90;;;;;;5002722;28;20026;-79
2022/01/01 02:45:14;;;;;;;3.40;1.13;;;26.60;99.90;;;;;;5001616;28;20034;-72
2022/01/01 02:47:43;;;;;;;2.47;0.60;;;26.90;99.90;;;;;;5001468;28;20040;-73
2022/01/01 02:50:11;;;;;;;4.57;0.70;;;26.80;99.90;;;;;;5002561;28;20081;-72
2022/01/01 02:52:39;;;;;;;2.70;0.73;;;27.00;99.90;;;;;;5003274;28;20022;-74
2022/01/01 02:55:07;;;;;;;6.00;1.15;;;27.30;99.90;;;;;;5000611;28;20052;-72
2022/01/01 02:57:35;;;;;;;5.28;1.15;;;26.80;99.90;;;;;;5001528;28;20041;-72
2022/01/01 03:00:03;;;;;;;4.68;0.70;;;26.40;99.90;;;;;;5003154;28;20036;-73
2022/01/01 03:02:30;;;;;;;4.65;0.70;;;26.50;99.90;;;;;;5003069;28;20026;-73
2022/01/01 03:04:58;;;;;;;6.18;0.80;;;26.60;99.90;;;;;;5001506;28;20022;-74
2022/01/01 03:07:25;;;;;;;3.45;0.77;;;26.80;99.90;;;;;;5003408;28;20022;-74
2022/01/01 03:09:52;;;;;;;3.40;0.85;;;27.00;99.90;;;;;;5002021;28;20026;-71
2022/01/01 03:12:20;;;;;;;6.00;0.90;;;26.80;99.90;;;;;;5000545;28;20582;-79
2022/01/01 03:14:47;;;;;;;6.32;1.17;;;26.60;99.90;;;;;;4999049;28;20020;-76
2022/01/01 03:17:14;;;;;;;2.13;0.43;;;26.80;99.90;;;;;;5003507;28;20030;-71
2022/01/01 03:19:42;;;;;;;7.43;0.80;;;27.00;99.90;;;;;;4998838;28;20023;-79
2022/01/01 03:22:09;;;;;;;6.68;0.60;;;27.30;99.90;;;;;;4993212;28;20042;-71
2022/01/01 03:24:36;;;;;;;3.70;1.08;;;27.40;99.90;;;;;;4993036;28;20029;-72
2022/01/01 03:27:04;;;;;;;2.30;0.57;;;27.50;99.90;;;;;;4993407;28;20050;-75
2022/01/01 03:29:32;;;;;;;5.70;1.05;;;27.20;99.90;;;;;;4993081;28;20023;-75
2022/01/01 03:32:00;;;;;;;4.65;0.77;;;27.00;99.90;;;;;;4984222;28;20038;-72
2022/01/01 03:34:27;;;;;;;3.38;1.08;;;27.10;99.90;;;;;;4985010;28;20058;-72
2022/01/01 03:36:55;;;;;;;9.07;0.75;;;27.10;99.90;;;;;;4988792;28;20101;-70
2022/01/01 03:39:22;;;;;;;4.70;0.77;;;26.80;99.90;;;;;;4983129;28;20027;-75
2022/01/01 03:41:50;;;;;;;4.50;0.75;;;26.70;99.90;;;;;;4979075;28;20089;-73
2022/01/01 03:44:18;;;;;;;3.05;0.55;;;26.60;99.90;;;;;;4977390;28;20030;-72
2022/01/01 03:46:46;;;;;;;3.35;0.65;;;26.20;99.90;;;;;;4973194;28;20056;-71
2022/01/01 03:49:14;;;;;;;2.55;0.57;;;26.00;99.90;;;;;;4972076;28;20026;-73
2022/01/01 03:51:42;;;;;;;4.53;1.15;;;26.10;99.90;;;;;;4972632;28;20114;-72
2022/01/01 03:54:11;;;;;;;5.88;1.13;;;26.00;99.90;;;;;;4981956;28;20065;-73
2022/01/01 03:56:38;;;;;;;0.93;0.50;;;25.80;99.90;;;;;;4990752;28;20049;-71
2022/01/01 03:59:06;;;;;;;4.53;0.95;;;25.80;99.90;;;;;;4992217;28;20034;-73
2022/01/01 04:01:34;;;;;;;10.55;1.42;;;25.80;99.90;;;;;;4995136;28;20063;-74
2022/01/01 04:04:01;;;;;;;8.18;1.08;;;26.20;99.90;;;;;;4995522;28;20455;-75
2022/01/01 04:06:28;;;;;;;4.13;1.17;;;26.60;99.90;;;;;;4991916;28;20033;-75
2022/01/01 04:08:56;;;;;;;11.88;0.88;;;26.90;99.90;;;;;;4993544;28;20018;-74
2022/01/01 04:11:23;;;;;;;9.65;0.82;;;27.10;99.90;;;;;;4994326;28;20332;-74
2022/01/01 04:13:51;;;;;;;6.72;0.98;;;27.00;99.90;;;;;;4995054;28;20100;-74
2022/01/01 04:16:19;;;;;;;8.85;1.00;;;26.70;99.90;;;;;;4993437;28;20411;-75
2022/01/01 04:18:49;;;;;;;4.35;0.75;;;26.60;99.90;;;;;;4995324;28;20034;-73
2022/01/01 04:21:17;;;;;;;2.78;0.90;;;26.60;99.90;;;;;;4992621;28;20039;-77
2022/01/01 04:23:45;;;;;;;5.50;0.68;;;26.70;99.90;;;;;;4996480;28;20033;-70
2022/01/01 04:26:13;;;;;;;7.22;1.35;;;26.70;99.90;;;;;;4995680;28;20054;-71
2022/01/01 04:28:41;;;;;;;3.50;0.95;;;26.80;99.90;;;;;;4995428;28;20030;-70
2022/01/01 04:31:09;;;;;;;8.20;1.02;;;26.50;99.90;;;;;;4994683;28;20109;-71
2022/01/01 04:33:36;;;;;;;3.58;0.70;;;26.50;99.90;;;;;;4996375;28;20026;-70
2022/01/01 04:36:04;;;;;;;6.15;1.40;;;26.40;99.90;;;;;;4995692;28;20526;-70
2022/01/01 04:41:07;;;;;;;5.40;0.82;;;25.90;99.90;;;;;;4994683;28;20550;-70
2022/01/01 04:43:35;;;;;;;4.38;0.90;;;25.80;99.90;;;;;;4995525;28;20027;-70
2022/01/01 04:46:03;;;;;;;4.38;0.70;;;25.50;99.90;;;;;;4994394;28;20375;-70
2022/01/01 04:48:30;;;;;;;5.85;0.90;;;25.60;99.90;;;;;;4993535;28;20038;-71
2022/01/01 04:50:57;;;;;;;7.60;0.93;;;25.70;99.90;;;;;;4993269;28;20022;-70
2022/01/01 04:53:25;;;;;;;6.68;1.38;;;25.60;99.90;;;;;;4993589;28;20418;-71
2022/01/01 04:55:52;;;;;;;5.07;1.35;;;25.60;99.90;;;;;;4993391;28;20364;-70
2022/01/01 04:58:19;;;;;;;5.80;1.20;;;25.40;99.90;;;;;;4993938;28;20518;-71
2022/01/01 05:00:47;;;;;;;4.80;1.48;;;25.40;99.90;;;;;;4992256;28;20033;-70
2022/01/01 05:03:14;;;;;;;5.03;1.00;;;25.60;99.90;;;;;;4992464;28;20080;-71
2022/01/01 05:05:41;;;;;;;4.68;0.80;;;26.00;99.90;;;;;;4991498;28;20030;-70
2022/01/01 05:08:09;;;;;;;7.38;1.13;;;26.00;99.90;;;;;;4991191;28;20019;-70
2022/01/01 05:10:36;;;;;;;7.68;2.30;;;26.10;99.90;;;;;;4992634;28;20419;-70
2022/01/01 05:13:04;;;;;;;5.22;1.02;;;26.10;99.90;;;;;;4992548;28;20022;-70
2022/01/01 05:15:31;;;;;;;6.55;1.00;;;26.30;99.90;;;;;;4992167;28;20038;-70
2022/01/01 05:17:58;;;;;;;5.55;0.77;;;26.20;99.90;;;;;;4993542;28;20018;-70
2022/01/01 05:20:27;;;;;;;4.57;1.50;;;26.30;99.90;;;;;;4993230;28;20026;-70
2022/01/01 05:22:54;;;;;;;4.20;0.70;;;26.20;99.90;;;;;;4993309;28;20487;-70
2022/01/01 05:25:21;;;;;;;3.40;0.50;;;26.30;99.90;;;;;;4994831;28;20030;-70
2022/01/01 05:27:48;;;;;;;6.38;1.23;;;26.20;99.90;;;;;;4995376;28;20061;-70
2022/01/01 05:30:16;;;;;;;7.07;1.20;;;26.50;99.90;;;;;;4995325;28;20097;-70
2022/01/01 05:32:43;;;;;;;10.73;1.42;;;26.30;99.90;;;;;;4995161;28;20029;-70
2022/01/01 05:35:10;;;;;;;5.18;1.05;;;26.10;99.90;;;;;;4995463;28;20479;-70
2022/01/01 05:37:38;;;;;;;6.70;1.50;;;26.10;99.90;;;;;;4995436;28;20026;-70
2022/01/01 05:40:06;;;;;;;5.60;1.13;;;26.20;99.90;;;;;;4995316;28;20022;-71
2022/01/01 05:42:33;;;;;;;5.78;1.15;;;26.50;99.90;;;;;;4994690;28;20038;-70
2022/01/01 05:45:01;;;;;;;2.70;0.63;;;26.60;99.90;;;;;;4995187;28;20037;-69
2022/01/01 05:47:28;;;;;;;4.03;1.25;;;26.40;99.90;;;;;;4995096;28;20101;-71
2022/01/01 05:49:58;;;;;;;13.25;1.10;;;26.10;99.90;;;;;;4994951;28;20033;-71
2022/01/01 05:52:25;;;;;;;5.90;1.30;;;25.80;99.90;;;;;;4994715;28;20036;-71
2022/01/01 05:54:53;;;;;;;6.85;1.23;;;25.70;99.90;;;;;;4994863;28;20022;-70
2022/01/01 05:57:20;;;;;;;6.88;1.30;;;25.50;99.90;;;;;;4994960;28;20571;-70
2022/01/01 05:59:48;;;;;;;7.93;1.33;;;25.40;99.90;;;;;;4994984;28;20026;-70
2022/01/01 06:02:15;;;;;;;6.43;1.75;;;25.60;99.90;;;;;;4994611;28;20061;-71
2022/01/01 06:04:42;;;;;;;5.82;1.52;;;25.60;99.90;;;;;;4994696;28;20427;-71
2022/01/01 06:07:10;;;;;;;10.32;1.15;;;25.40;99.90;;;;;;4994600;28;20023;-69
2022/01/01 06:09:38;;;;;;;5.80;1.30;;;25.30;99.90;;;;;;4994532;28;20475;-69
2022/01/01 06:12:05;;;;;;;12.02;1.95;;;25.20;99.90;;;;;;4994362;28;20415;-70
2022/01/01 06:14:33;;;;;;;3.60;0.93;;;25.00;99.90;;;;;;4994746;28;20436;-70
2022/01/01 06:17:00;;;;;;;7.97;1.38;;;25.00;99.90;;;;;;4994657;28;20096;-71
2022/01/01 06:19:27;;;;;;;4.32;1.00;;;25.10;99.90;;;;;;4994469;28;20037;-70
2022/01/01 06:21:54;;;;;;;8.02;1.80;;;25.10;99.90;;;;;;4993545;28;20035;-71
2022/01/01 06:24:22;;;;;;;8.00;1.60;;;25.20;99.90;;;;;;4993196;28;20023;-70
2022/01/01 06:26:49;;;;;;;11.82;2.15;;;25.20;99.90;;;;;;4994240;28;20104;-69
2022/01/01 06:29:16;;;;;;;3.13;0.95;;;25.20;99.90;;;;;;4994490;28;20038;-70
2022/01/01 06:31:44;;;;;;;5.07;1.40;;;25.20;99.90;;;;;;4994375;28;20032;-69
2022/01/01 06:34:11;;;;;;;6.53;1.35;;;25.20;99.90;;;;;;4994393;28;20026;-69
2022/01/01 06:36:38;;;;;;;7.05;1.02;;;25.20;99.90;;;;;;4979137;28;20027;-70
2022/01/01 06:39:06;;;;;;;5.25;1.50;;;25.10;99.90;;;;;;4974660;28;20030;-69
2022/01/01 06:41:33;;;;;;;8.15;1.17;;;25.20;99.90;;;;;;4973697;28;20037;-71
2022/01/01 06:44:00;;;;;;;6.57;1.05;;;25.20;99.90;;;;;;4974973;28;20022;-69
2022/01/01 06:46:28;;;;;;;5.47;1.60;;;25.10;99.90;;;;;;4974625;28;20027;-70
2022/01/01 06:48:55;;;;;;;7.20;1.05;;;25.10;99.90;;;;;;4974785;28;20030;-69
2022/01/01 06:51:22;;;;;;;7.13;1.35;;;25.10;99.90;;;;;;4974725;28;20058;-71
2022/01/01 06:53:50;;;;;;;6.97;1.83;;;25.00;99.90;;;;;;4974559;28;20023;-71
2022/01/01 06:56:17;;;;;;;5.05;1.10;;;24.90;99.90;;;;;;4974830;28;20065;-71
2022/01/01 06:58:45;;;;;;;7.47;1.13;;;24.80;99.90;;;;;;4974777;28;20085;-71
2022/01/01 07:01:12;;;;;;;4.57;1.10;;;24.80;99.90;;;;;;4974542;28;20030;-72
2022/01/01 07:03:39;;;;;;;5.50;1.50;;;24.60;99.90;;;;;;4974551;28;20051;-70
2022/01/01 07:06:08;;;;;;;11.27;1.52;;;24.40;99.90;;;;;;4974488;28;20034;-71
2022/01/01 07:08:35;;;;;;;7.55;1.02;;;24.20;99.90;;;;;;4974699;28;20019;-71
2022/01/01 07:11:02;;;;;;;3.92;1.13;;;24.10;99.90;;;;;;4974462;28;20054;-71
2022/01/01 07:13:29;;;;;;;3.05;1.10;;;24.10;99.90;;;;;;4974459;28;20023;-70
2022/01/01 07:15:57;;;;;;;6.20;1.13;;;24.10;99.90;;;;;;4974440;28;20104;-71
2022/01/01 07:18:24;;;;;;;5.03;0.90;;;24.10;99.90;;;;;;4974366;28;20031;-70
2022/01/01 07:20:52;;;;;;;6.30;1.50;;;24.10;99.90;;;;;;4973275;28;20045;-72
2022/01/01 07:23:19;;;;;;;7.65;1.52;;;24.00;99.90;;;;;;4977350;28;20019;-71
2022/01/01 07:25:46;;;;;;;7.75;1.65;;;24.00;99.90;;;;;;4973245;28;20050;-70
2022/01/01 07:28:16;;;;;;;4.85;1.30;;;24.00;99.90;;;;;;4976386;28;20033;-70
2022/01/01 07:30:47;;;;;;;8.20;1.02;;;24.00;99.90;;;;;;4977999;28;20052;-71
2022/01/01 07:33:15;;;;;;;5.18;1.02;;;23.90;99.90;;;;;;4977906;28;20030;-70
2022/01/01 07:35:43;;;;;;;7.05;1.55;;;23.90;99.90;;;;;;4976405;28;20030;-70
2022/01/01 07:38:10;;;;;;;3.97;0.90;;;23.80;99.90;;;;;;4977422;28;20033;-70
2022/01/01 07:40:39;;;;;;;4.75;1.20;;;23.70;99.90;;;;;;4986835;28;20023;-70
2022/01/01 07:43:17;;;;;;;8.10;0.98;;;23.60;99.90;;;;;;4987118;28;20522;-70
2022/01/01 07:45:45;;;;;;;8.20;1.35;;;23.70;99.90;;;;;;4985666;28;20023;-70
2022/01/01 07:48:12;;;;;;;5.57;2.03;;;23.70;99.90;;;;;;4986019;28;20030;-70
2022/01/01 07:50:40;;;;;;;7.40;1.13;;;23.70;99.90;;;;;;4977858;28;20022;-70
2022/01/01 07:53:09;;;;;;;11.05;1.23;;;23.70;99.90;;;;;;4977048;28;20026;-71
2022/01/01 07:55:36;;;;;;;5.15;1.13;;;23.60;99.90;;;;;;4988248;28;20030;-70
2022/01/01 07:58:05;;;;;;;10.55;1.63;;;23.60;99.90;;;;;;4990504;28;20019;-70
2022/01/01 08:00:33;;;;;;;10.88;2.05;;;23.60;99.90;;;;;;4976057;28;20106;-71
2022/01/01 08:03:00;;;;;;;7.50;1.33;;;23.50;99.90;;;;;;4975577;28;20444;-70
2022/01/01 08:05:27;;;;;;;5.57;1.20;;;23.50;99.90;;;;;;4976215;28;20025;-70
2022/01/01 08:07:55;;;;;;;5.80;1.88;;;23.50;99.90;;;;;;4976262;28;20086;-70
2022/01/01 08:10:23;;;;;;;5.75;1.67;;;23.40;99.90;;;;;;4976842;28;20467;-70
2022/01/01 08:12:50;;;;;;;9.60;1.70;;;23.40;99.90;;;;;;4976889;28;20468;-70
2022/01/01 08:15:18;;;;;;;6.47;1.10;;;23.40;99.90;;;;;;4976804;28;20027;-70
2022/01/01 08:17:45;;;;;;;7.53;1.70;;;23.40;99.90;;;;;;4976628;28;20049;-70
2022/01/01 08:20:12;;;;;;;10.07;1.65;;;23.40;99.90;;;;;;4976589;28;20468;-70
2022/01/01 08:22:40;;;;;;;5.63;1.23;;;23.40;99.90;;;;;;4976029;28;20098;-70
2022/01/01 08:25:08;;;;;;;11.25;1.50;;;23.40;99.90;;;;;;4976518;28;20054;-70
2022/01/01 08:27:35;;;;;;;11.13;1.80;;;23.30;99.90;;;;;;4976384;28;20074;-70
2022/01/01 08:30:03;;;;;;;9.93;2.13;;;23.20;99.90;;;;;;4976429;28;20422;-70
2022/01/01 08:32:30;;;;;;;9.32;1.75;;;23.20;99.90;;;;;;4976450;28;20035;-70
2022/01/01 08:34:57;;;;;;;7.00;1.48;;;23.20;99.90;;;;;;4976494;28;20019;-71
2022/01/01 08:37:25;;;;;;;11.55;1.40;;;23.20;99.90;;;;;;4976417;28;20053;-70
2022/01/01 08:39:52;;;;;;;4.57;1.00;;;23.20;99.90;;;;;;4974707;28;20652;-70
2022/01/01 08:42:20;;;;;;;6.82;0.95;;;23.10;99.90;;;;;;4975913;28;20042;-70
2022/01/01 08:44:48;;;;;;;6.75;1.70;;;23.10;99.90;;;;;;4976335;28;20049;-71
2022/01/01 08:47:15;;;;;;;4.97;1.42;;;23.10;99.90;;;;;;4976996;28;20432;-70
2022/01/01 08:49:42;;;;;;;11.85;1.67;;;23.00;99.90;;;;;;4977297;28;20030;-70
2022/01/01 08:52:13;;;;;;;6.15;1.33;;;23.00;99.90;;;;;;4975227;28;20027;-71
2022/01/01 08:54:40;;;;;;;8.60;1.67;;;23.00;99.90;;;;;;4975374;28;20611;-71
2022/01/01 08:57:09;;;;;;;5.15;1.50;;;23.00;99.90;;;;;;4975584;28;20484;-70
2022/01/01 08:59:37;;;;;;;5.65;1.50;;;22.90;99.90;;;;;;4975804;28;20018;-72
2022/01/01 09:02:05;;;;;;;9.15;1.42;;;22.80;99.90;;;;;;4975680;28;20053;-69
2022/01/01 09:04:32;;;;;;;8.95;1.67;;;22.80;99.90;;;;;;4992143;28;20045;-68
2022/01/01 09:07:00;;;;;;;9.05;1.45;;;22.70;99.90;;;;;;4994627;28;20073;-70
2022/01/01 09:09:27;;;;;;;5.97;1.17;;;22.60;99.90;;;;;;4995104;28;20045;-68
2022/01/01 09:11:54;;;;;;;4.55;1.55;;;22.60;99.90;;;;;;4994732;28;20131;-70
2022/01/01 09:14:22;;;;;;;8.43;1.88;;;22.60;99.90;;;;;;4994669;28;20105;-70
2022/01/01 09:16:52;;;;;;;9.23;1.42;;;22.60;99.90;;;;;;4994501;28;20030;-69
2022/01/01 09:19:20;;;;;;;4.75;1.02;;;22.60;99.90;;;;;;4994744;28;20426;-68
2022/01/01 09:21:47;;;;;;;8.30;1.92;;;22.50;99.90;;;;;;4994321;28;20022;-68
2022/01/01 09:24:16;;;;;;;6.88;1.83;;;22.50;99.90;;;;;;4984825;28;20030;-70
2022/01/01 09:26:44;;;;;;;11.75;1.95;;;22.50;99.90;;;;;;4973465;28;20060;-68
2022/01/01 09:29:11;;;;;;;8.20;1.55;;;22.50;99.90;;;;;;4974465;28;20022;-68
2022/01/01 09:31:41;;;;;;;4.95;1.20;;;22.40;99.90;;;;;;4975105;28;20058;-71
2022/01/01 09:34:09;;;;;;;10.90;1.60;;;22.40;99.90;;;;;;4974772;28;20034;-69
2022/01/01 09:36:37;;;;;;;8.80;1.90;;;22.40;99.90;;;;;;4974265;28;20046;-69
2022/01/01 09:39:06;;;;;;;4.95;1.20;;;22.40;99.90;;;;;;4974834;28;20483;-68
2022/01/01 09:41:33;;;;;;;8.90;2.78;;;22.40;99.90;;;;;;4974491;28;20039;-68
2022/01/01 09:44:02;;;;;;;9.65;1.42;;;22.30;99.90;;;;;;4974684;28;20027;-68
2022/01/01 09:46:30;;;;;;;8.27;1.88;;;22.30;99.90;;;;;;4974347;28;20031;-68
2022/01/01 09:48:58;;;;;;;7.55;1.80;;;22.30;99.90;;;;;;4974547;28;20098;-68
2022/01/01 09:51:26;;;;;;;7.47;1.27;;;22.30;99.90;;;;;;4988582;28;20441;-70
2022/01/01 09:53:53;;;;;;;4.65;1.42;;;22.20;99.90;;;;;;4973203;28;20031;-68
2022/01/01 09:56:20;;;;;;;11.00;1.52;;;22.20;99.90;;;;;;4974602;28;20035;-68
2022/01/01 09:58:47;;;;;;;9.00;1.58;;;22.20;99.90;;;;;;4974620;28;20019;-68
2022/01/01 10:01:15;;;;;;;7.70;1.75;;;22.10;99.90;;;;;;4974278;28;20538;-68
2022/01/01 10:03:45;;;;;;;12.63;2.13;;;22.10;99.90;;;;;;4974464;28;20027;-69
2022/01/01 10:06:18;;;;;;;7.43;1.88;;;22.10;99.90;;;;;;4974132;28;20085;-69
2022/01/01 10:09:02;;;;;;;13.68;1.42;;;22.10;99.90;;;;;;4974450;28;20046;-69
2022/01/01 10:11:36;;;;;;;9.30;1.88;;;22.00;99.90;;;;;;4974259;28;20034;-69
2022/01/01 10:14:11;;;;;;;9.07;2.05;;;22.10;99.90;;;;;;4974267;28;20029;-69
2022/01/01 10:16:45;;;;;;;9.27;1.55;;;22.00;99.90;;;;;;4974045;28;20387;-68
2022/01/01 10:19:13;;;;;;;12.35;1.75;;;22.00;99.90;;;;;;4988062;28;20030;-69
2022/01/01 10:21:42;;;;;;;11.80;2.15;;;22.00;99.90;;;;;;4973946;28;20113;-69
2022/01/01 10:24:14;;;;;;;11.30;1.55;;;22.00;99.90;;;;;;4973772;28;20023;-68
2022/01/01 10:29:32;;;;;;;8.32;1.80;;;21.90;99.90;;;;;;4984099;28;20034;-68
2022/01/01 10:32:10;;;;;;;9.43;1.58;;;21.90;99.90;;;;;;4983627;28;20471;-69
2022/01/01 10:34:48;;;;;;;6.00;1.40;;;21.90;99.90;;;;;;4984322;28;20398;-69
2022/01/01 10:37:16;;;;;;;11.77;1.95;;;21.90;99.90;;;;;;4984141;28;20121;-69
2022/01/01 10:39:52;;;;;;;11.45;2.25;;;21.90;99.90;;;;;;4983335;28;20110;-70
2022/01/01 10:42:19;;;;;;;;;;;21.80;99.90;;;;;;4983660;28;20041;-68
2022/01/01 10:44:52;;;;;;;10.02;1.85;;;21.80;99.90;;;;;;4984959;28;20005;-68
2022/01/01 10:47:30;;;;;;;10.65;2.17;;;21.80;99.90;;;;;;4985465;28;20034;-68
2022/01/01 10:50:15;;;;;;;8.18;2.25;;;21.80;99.90;;;;;;4992971;28;20030;-68
2022/01/01 10:52:46;;;;;;;7.32;1.88;;;21.80;99.90;;;;;;4993287;28;20026;-69
2022/01/01 10:55:14;;;;;;;6.28;1.73;;;21.70;99.90;;;;;;4993103;28;20023;-69
2022/01/01 10:57:53;;;;;;;13.73;1.77;;;21.70;99.90;;;;;;4993386;28;20444;-69
2022/01/01 11:00:23;;;;;;;5.22;1.48;;;21.70;99.90;;;;;;4989423;28;20026;-69
2022/01/01 11:02:53;;;;;;;8.93;2.03;;;21.70;99.90;;;;;;4984372;28;20053;-68
2022/01/01 11:05:35;;;;;;;10.93;2.67;;;21.60;99.90;;;;;;4985312;28;20142;-68
2022/01/01 11:08:05;;;;;;;5.45;1.45;;;21.60;99.90;;;;;;4983876;28;20353;-68
2022/01/01 11:10:33;;;;;;;11.55;2.72;;;21.50;99.90;;;;;;4984801;28;20372;-69
2022/01/01 11:13:03;;;;;;;6.65;1.90;;;21.60;99.90;;;;;;4985165;28;20721;-69
2022/01/01 11:15:31;;;;;;;11.13;2.10;;;21.60;99.90;;;;;;4984414;28;20487;-68
2022/01/01 11:18:01;;;;;;;6.75;2.13;;;21.50;99.90;;;;;;4985205;28;20022;-67
2022/01/01 11:20:33;;;;;;;7.35;2.08;;;21.50;99.90;;;;;;4984845;28;20041;-68
2022/01/01 11:23:06;;;;;;;7.13;1.88;;;21.50;99.90;;;;;;4985046;28;20118;-68
2022/01/01 11:25:38;;;;;;;14.18;2.53;;;21.40;99.90;;;;;;4984496;28;20033;-67
2022/01/01 11:28:10;;;;;;;5.68;2.20;;;21.40;99.90;;;;;;4984324;28;20058;-69
2022/01/01 11:30:50;;;;;;;13.63;1.67;;;21.40;99.90;;;;;;4983840;28;20022;-68
2022/01/01 11:33:26;;;;;;;12.68;2.05;;;21.30;99.90;;;;;;4985203;28;20109;-68
2022/01/01 11:35:59;;;;;;;5.30;1.38;;;21.30;99.90;;;;;;4984175;28;20463;-69
2022/01/01 11:38:29;;;;;;;8.18;2.03;;;21.30;99.90;;;;;;4984280;28;20023;-69
2022/01/01 11:40:59;;;;;;;8.90;2.50;;;21.20;99.90;;;;;;4983643;28;20035;-68
2022/01/01 11:43:42;;;;;;;15.05;1.90;;;21.20;99.90;;;;;;4985032;28;20022;-68
2022/01/01 11:46:15;;;;;;;13.75;1.70;;;21.20;99.90;;;;;;4984672;28;20460;-69
2022/01/01 11:48:51;;;;;;;8.35;1.50;;;21.10;99.90;;;;;;4984422;28;20142;-67
2022/01/01 11:51:33;;;;;;;12.27;2.33;;;21.10;99.90;;;;;;4981204;28;20030;-70
2022/01/01 11:54:07;;;;;;;8.35;1.35;;;21.00;99.90;;;;;;4985021;28;20018;-69
2022/01/01 11:56:55;;;;;;;11.60;1.58;;;21.00;99.90;;;;;;4984315;28;20022;-68
2022/01/01 11:59:30;;;;;;;8.77;1.75;;;21.00;99.90;;;;;;4975430;28;20023;-69
2022/01/01 12:02:06;;;;;;;7.68;2.08;;;20.90;99.90;;;;;;4973054;28;20039;-68
2022/01/01 12:05:00;;;;;;;8.45;1.77;;;20.90;99.90;;;;;;4972902;28;20105;-69
2022/01/01 12:07:31;;;;;;;8.30;1.30;;;20.80;99.90;;;;;;4970960;28;20441;-68
2022/01/01 12:10:07;;;;;;;7.00;1.80;;;20.80;99.90;;;;;;4973596;28;20031;-68
2022/01/01 12:12:51;;;;;;;7.57;1.40;;;20.70;99.90;;;;;;4971862;28;20027;-68
2022/01/01 12:15:42;;;;;;;12.45;1.95;;;20.70;99.90;;;;;;4998729;28;20442;-71
2022/01/01 12:18:19;;;;;;;8.50;1.73;;;20.60;99.90;;;;;;4985990;28;20019;-71
2022/01/01 12:21:08;;;;;;;5.55;1.33;;;20.60;99.90;;;;;;4986842;28;20049;-71
2022/01/01 12:23:38;;;;;;;10.95;2.53;;;20.60;99.90;;;;;;4986270;28;20098;-70
2022/01/01 12:26:14;;;;;;;5.32;1.23;;;20.60;99.90;;;;;;4977452;28;20043;-71
2022/01/01 12:28:44;;;;;;;7.93;1.75;;;20.60;99.90;;;;;;4976688;28;20019;-68
2022/01/01 12:31:23;;;;;;;9.85;1.48;;;20.50;99.90;;;;;;4976317;28;20483;-71
2022/01/01 12:33:54;;;;;;;11.60;1.00;;;20.50;99.90;;;;;;4976427;28;20441;-71
2022/01/01 12:36:24;;;;;;;12.18;2.30;;;20.40;99.90;;;;;;4976331;28;20027;-70
2022/01/01 12:38:55;;;;;;;7.13;1.60;;;20.40;99.90;;;;;;4976325;28;20505;-70
2022/01/01 12:41:30;;;;;;;9.00;1.67;;;20.40;99.90;;;;;;4976214;28;20194;-70
2022/01/01 12:44:00;;;;;;;6.05;1.75;;;20.30;99.90;;;;;;5001180;28;20109;-70
2022/01/01 12:46:31;;;;;;;8.38;2.20;;;20.30;99.90;;;;;;4996218;28;20030;-69
2022/01/01 12:49:00;;;;;;;9.30;1.95;;;20.30;99.90;;;;;;4995218;28;20104;-70
2022/01/01 12:51:33;;;;;;;12.07;1.63;;;20.20;99.90;;;;;;4996234;28;20026;-69
2022/01/01 12:54:04;;;;;;;6.78;1.30;;;20.20;99.90;;;;;;4996424;28;20031;-70
2022/01/01 12:56:34;;;;;;;12.55;1.70;;;20.20;99.90;;;;;;4996192;28;20414;-70
2022/01/01 12:59:07;;;;;;;4.80;1.58;;;20.10;99.90;;;;;;4996029;28;20471;-70
2022/01/01 13:01:37;;;;;;;7.60;1.95;;;20.10;99.90;;;;;;4995998;28;20569;-70